Time;durP1;ratioP1;P1;durP2;ratioP2;P2;SDS_P1;SDS_P2;PMS_P1;PMS_P2;Temp;Humidity;BMP_temperature;BMP_pressure;BME280_temperature;BME280_humidity;BME280_pressure;Samples;Min_cycle;Max_cycle;Signal;HPM_P1;HPM_P2
2024/03/21 00:00:19;;;;;;;;;31.50;27.25;;;;;15.48;65.25;101437.94;5048151;28;45935;-54
2024/03/21 00:02:47;;;;;;;;;26.25;21.75;;;;;15.45;65.22;101446.81;5051978;28;45394;-54
2024/03/21 00:05:15;;;;;;;;;33.00;29.50;;;;;15.41;65.37;101447.84;5050840;28;45430;-54
2024/03/21 00:07:45;;;;;;;;;28.50;27.50;;;;;15.41;65.51;101457.56;5052700;28;46334;-56
2024/03/21 00:10:11;;;;;;;;;35.75;28.25;;;;;15.40;65.40;101453.19;5042553;28;45889;-53
2024/03/21 00:12:36;;;;;;;;;36.50;29.75;;;;;15.38;65.55;101461.16;5053008;28;45540;-53
2024/03/21 00:15:02;;;;;;;;;37.25;26.25;;;;;15.38;65.88;101467.25;5050608;28;71293;-56
2024/03/21 00:17:27;;;;;;;;;29.00;23.75;;;;;15.38;65.87;101469.06;5043876;28;46108;-55
2024/03/21 00:19:52;;;;;;;;;31.00;22.75;;;;;15.38;65.96;101467.25;5047265;28;73506;-55
2024/03/21 00:22:18;;;;;;;;;32.75;28.00;;;;;15.36;66.39;101457.69;5070028;28;55034;-55
2024/03/21 00:24:43;;;;;;;;;32.25;29.75;;;;;15.36;66.26;101470.88;5049597;28;45439;-54
2024/03/21 00:27:08;;;;;;;;;31.50;27.50;;;;;15.34;66.35;101464.81;5058424;28;66662;-52
2024/03/21 00:29:34;;;;;;;;;38.25;30.50;;;;;15.32;66.69;101472.78;5047154;28;56499;-54
2024/03/21 00:32:02;;;;;;;;;31.75;29.00;;;;;15.29;66.57;101472.88;5026447;28;45388;-53
2024/03/21 00:34:27;;;;;;;;;41.25;32.75;;;;;15.26;67.00;101472.97;5048273;28;54350;-53
2024/03/21 00:36:53;;;;;;;;;44.75;33.25;;;;;15.26;67.15;101475.59;5058898;28;46193;-53
2024/03/21 00:39:19;;;;;;;;;33.25;31.00;;;;;15.22;66.93;101467.88;5058329;28;45331;-54
2024/03/21 00:41:45;;;;;;;;;39.50;32.75;;;;;15.20;67.36;101470.56;5057722;28;45353;-52
2024/03/21 00:44:11;;;;;;;;;35.25;31.50;;;;;15.18;67.41;101472.41;5063341;28;45430;-53
2024/03/21 00:46:37;;;;;;;;;41.50;31.50;;;;;15.17;67.48;101474.19;5062241;28;47013;-55
2024/03/21 00:49:03;;;;;;;;;35.25;29.50;;;;;15.18;67.68;101467.13;5062620;27;45347;-55
2024/03/21 00:51:31;;;;;;;;;38.00;30.25;;;;;15.21;67.78;101472.28;5057511;28;45323;-54
2024/03/21 00:53:56;;;;;;;;;37.50;30.50;;;;;15.19;67.87;101480.25;5056535;28;45420;-54
2024/03/21 00:56:22;;;;;;;;;31.75;27.00;;;;;15.19;67.55;101487.28;5052517;28;46854;-55
2024/03/21 00:58:47;;;;;;;;;31.50;29.50;;;;;15.16;67.91;101490.91;5060075;28;45427;-54
2024/03/21 01:01:12;;;;;;;;;33.50;27.75;;;;;15.14;68.16;101495.38;5054553;28;69303;-54
2024/03/21 01:03:39;;;;;;;;;39.25;30.00;;;;;15.11;68.15;101495.47;5078003;27;63481;-53
2024/03/21 01:06:04;;;;;;;;;33.25;28.00;;;;;15.06;68.54;101504.44;5062413;28;46275;-53
2024/03/21 01:08:30;;;;;;;;;36.00;29.50;;;;;15.01;68.68;101501.94;5060338;28;68077;-55
2024/03/21 01:10:55;;;;;;;;;31.75;27.75;;;;;14.98;69.00;101502.94;5053382;28;64696;-54
2024/03/21 01:13:20;;;;;;;;;33.50;27.00;;;;;14.96;68.97;101514.41;5040428;28;72513;-53
2024/03/21 01:15:46;;;;;;;;;27.25;26.25;;;;;14.91;68.93;101527.75;5050013;28;45559;-55
2024/03/21 01:18:12;;;;;;;;;28.25;25.50;;;;;14.86;69.04;101523.56;5044551;28;45335;-52
2024/03/21 01:20:41;;;;;;;;;29.25;22.50;;;;;14.77;69.28;101520.28;5043614;28;45413;-53
2024/03/21 01:23:07;;;;;;;;;30.00;26.25;;;;;14.68;69.87;101522.34;5052892;28;45470;-55
2024/03/21 01:25:32;;;;;;;;;29.75;25.25;;;;;14.63;69.88;101535.69;5056346;28;47104;-55
2024/03/21 01:28:00;;;;;;;;;21.00;20.75;;;;;14.57;69.96;101539.34;5043996;28;45312;-52
2024/03/21 01:30:28;;;;;;;;;24.75;22.75;;;;;14.54;70.23;101533.31;5041990;28;45378;-53
2024/03/21 01:32:53;;;;;;;;;31.50;25.50;;;;;14.50;70.45;101536.91;5042370;28;45468;-54
2024/03/21 01:35:18;;;;;;;;;27.25;21.75;;;;;14.44;70.99;101541.47;5041790;28;45499;-54
2024/03/21 01:37:44;;;;;;;;;28.25;25.25;;;;;14.40;70.84;101534.56;5041233;28;69526;-55
2024/03/21 01:40:11;;;;;;;;;25.50;21.50;;;;;14.35;71.05;101538.25;5041337;28;68200;-55
2024/03/21 01:42:37;;;;;;;;;29.00;23.00;;;;;14.30;71.29;101550.69;5048950;28;45613;-55
2024/03/21 01:45:05;;;;;;;;;26.00;22.50;;;;;14.27;71.68;101561.31;5050118;28;46976;-54
2024/03/21 01:47:31;;;;;;;;;23.75;22.25;;;;;14.24;71.78;101557.00;5040521;28;45511;-51
2024/03/21 01:49:56;;;;;;;;;25.25;24.00;;;;;14.20;71.30;101561.50;5053663;28;45281;-52
2024/03/21 01:52:22;;;;;;;;;23.75;23.25;;;;;14.16;71.69;101570.38;5040384;28;72787;-55
2024/03/21 01:54:48;;;;;;;;;28.75;23.25;;;;;14.10;71.88;101567.06;5042581;28;58762;-54
2024/03/21 01:57:13;;;;;;;;;24.25;21.75;;;;;14.04;72.36;101576.88;5046544;28;70130;-55
2024/03/21 01:59:38;;;;;;;;;24.50;20.50;;;;;13.98;72.19;101584.06;5040821;28;69026;-52
2024/03/21 02:02:05;;;;;;;;;24.00;22.50;;;;;13.94;72.41;101583.28;5056478;28;72240;-53
2024/03/21 02:04:30;;;;;;;;;24.50;19.00;;;;;13.91;72.35;101583.34;5058201;28;45446;-55
2024/03/21 02:06:56;;;;;;;;;27.50;23.50;;;;;13.87;72.53;101594.88;5058004;28;45443;-55
2024/03/21 02:09:23;;;;;;;;;18.75;15.00;;;;;13.80;72.54;101591.53;5053632;28;45493;-55
2024/03/21 02:11:48;;;;;;;;;23.25;18.50;;;;;13.74;73.26;101581.19;5059796;28;45354;-53
2024/03/21 02:14:14;;;;;;;;;24.75;20.00;;;;;13.70;73.15;101578.69;5061750;28;45416;-54
2024/03/21 02:16:40;;;;;;;;;24.25;21.25;;;;;13.66;72.82;101588.41;5060710;28;45402;-54
2024/03/21 02:19:06;;;;;;;;;24.50;22.50;;;;;13.60;73.22;101584.19;5056383;28;45462;-54
2024/03/21 02:24:15;;;;;;;;;28.50;23.00;;;;;13.55;73.89;101575.56;5058207;28;45874;-51
2024/03/21 02:26:40;;;;;;;;;25.00;23.50;;;;;13.54;73.84;101578.22;5058433;28;45317;-50
2024/03/21 02:29:06;;;;;;;;;26.25;18.00;;;;;13.52;73.94;101577.41;5050074;28;63552;-54
2024/03/21 02:31:31;;;;;;;;;23.00;20.00;;;;;13.47;73.51;101573.13;5041675;28;45503;-55
2024/03/21 02:33:56;;;;;;;;;24.00;18.75;;;;;13.44;73.91;101580.22;5060785;28;47304;-52
2024/03/21 02:36:23;;;;;;;;;23.50;19.00;;;;;13.41;73.78;101577.66;5046622;28;71056;-56
2024/03/21 02:38:48;;;;;;;;;25.50;22.50;;;;;13.37;74.33;101573.38;5059662;28;45264;-54
2024/03/21 02:41:13;;;;;;;;;25.50;22.75;;;;;13.36;74.20;101592.69;5051749;28;45246;-53
2024/03/21 02:43:39;;;;;;;;;19.50;17.50;;;;;13.35;74.33;101590.97;5051831;28;45984;-53
2024/03/21 02:46:04;;;;;;;;;18.75;16.75;;;;;13.32;73.89;101598.94;5058267;28;53192;-53
2024/03/21 02:48:30;;;;;;;;;23.25;19.50;;;;;13.26;73.86;101584.13;5058112;28;60364;-54
2024/03/21 02:50:56;;;;;;;;;20.25;20.00;;;;;13.25;74.34;101588.53;5060413;28;45305;-54
2024/03/21 02:53:21;;;;;;;;;21.75;16.50;;;;;13.22;74.38;101587.75;5059142;28;68365;-54
2024/03/21 02:55:46;;;;;;;;;19.25;17.25;;;;;13.21;74.59;101597.41;5056476;28;72599;-55
2024/03/21 02:58:12;;;;;;;;;22.00;19.75;;;;;13.21;74.68;101597.41;5052164;28;54437;-52
2024/03/21 03:00:37;;;;;;;;;17.00;16.00;;;;;13.20;74.41;101598.28;5053532;28;68834;-53
2024/03/21 03:03:02;;;;;;;;;22.50;17.00;;;;;13.20;74.44;101592.19;5058847;28;46197;-53
2024/03/21 03:05:28;;;;;;;;;17.50;15.75;;;;;13.21;74.61;101596.50;5057654;28;45430;-55
2024/03/21 03:07:53;;;;;;;;;22.00;17.25;;;;;13.21;74.44;101594.78;5059182;28;54605;-54
2024/03/21 03:10:18;;;;;;;;;22.25;17.75;;;;;13.22;74.38;101593.84;5052137;28;71560;-55
2024/03/21 03:12:44;;;;;;;;;18.25;18.00;;;;;13.23;74.41;101585.06;5042153;28;75577;-53
2024/03/21 03:15:10;;;;;;;;;30.00;21.00;;;;;13.22;74.40;101588.59;5051112;28;71179;-55
2024/03/21 03:17:35;;;;;;;;;32.00;21.75;;;;;13.25;74.18;101592.94;5045946;28;45251;-53
2024/03/21 03:20:01;;;;;;;;;19.50;15.00;;;;;13.24;73.90;101597.34;5059721;28;45438;-57
2024/03/21 03:22:26;;;;;;;;;22.75;16.00;;;;;13.24;74.50;101615.72;5049710;28;74716;-54
2024/03/21 03:24:51;;;;;;;;;24.25;19.00;;;;;13.23;74.24;101608.72;5055729;28;59916;-55
2024/03/21 03:27:18;;;;;;;;;21.50;18.50;;;;;13.22;74.00;101604.38;5049412;28;54636;-51
2024/03/21 03:29:43;;;;;;;;;18.00;17.25;;;;;13.23;74.24;101606.09;5056996;28;45279;-55
2024/03/21 03:32:09;;;;;;;;;19.50;17.75;;;;;13.22;74.15;101611.41;5045185;28;46009;-55
2024/03/21 03:37:18;;;;;;;;;21.25;20.00;;;;;13.14;73.93;101629.97;5058024;28;45328;-54
2024/03/21 03:39:44;;;;;;;;;19.25;15.00;;;;;13.10;74.30;101626.56;5053940;28;45340;-52
2024/03/21 03:42:09;;;;;;;;;17.75;16.25;;;;;13.07;74.03;101626.63;5049741;28;66601;-54
2024/03/21 03:44:35;;;;;;;;;23.00;18.00;;;;;13.04;74.08;101631.94;5048551;28;68839;-52
2024/03/21 03:47:00;;;;;;;;;20.75;19.25;;;;;13.03;74.29;101640.75;5058880;28;45252;-54
2024/03/21 03:49:26;;;;;;;;;23.00;18.00;;;;;13.01;74.43;101639.03;5056914;28;73276;-50
2024/03/21 03:51:51;;;;;;;;;23.25;18.25;;;;;13.00;74.12;101642.59;5052832;28;70348;-51
2024/03/21 03:54:17;;;;;;;;;17.25;15.00;;;;;12.98;74.11;101647.88;5058593;28;45379;-51
2024/03/21 03:56:42;;;;;;;;;21.00;17.25;;;;;12.96;74.27;101646.16;5059881;28;45266;-56
2024/03/21 03:59:07;;;;;;;;;22.25;18.50;;;;;12.96;74.32;101648.78;5047396;28;45588;-55
2024/03/21 04:01:33;;;;;;;;;25.00;20.00;;;;;12.93;73.77;101660.25;5058331;28;67689;-50
2024/03/21 04:03:58;;;;;;;;;13.00;11.75;;;;;12.92;74.15;101655.88;5057756;28;71945;-52
2024/03/21 04:06:24;;;;;;;;;23.75;15.00;;;;;12.87;74.00;101653.34;5053326;28;45332;-50
2024/03/21 04:08:49;;;;;;;;;19.00;16.00;;;;;12.84;74.05;101657.81;5049185;28;55390;-50
2024/03/21 04:11:15;;;;;;;;;13.00;11.50;;;;;12.82;74.60;101664.84;5051750;28;64441;-52
2024/03/21 04:13:41;;;;;;;;;18.50;16.25;;;;;12.80;74.38;101672.78;5052249;28;45341;-50
2024/03/21 04:16:10;;;;;;;;;16.25;14.25;;;;;12.78;74.55;101673.69;5038187;28;45302;-52
2024/03/21 04:18:35;;;;;;;;;16.25;14.50;;;;;12.76;74.16;101672.88;5056365;28;46199;-51
2024/03/21 04:21:00;;;;;;;;;21.75;14.25;;;;;12.73;74.12;101679.91;5038891;28;72231;-51
2024/03/21 04:23:26;;;;;;;;;18.75;14.75;;;;;12.72;74.32;101685.19;5051154;28;72490;-49
2024/03/21 04:25:51;;;;;;;;;16.00;11.00;;;;;12.71;74.16;101692.22;5056297;28;68301;-49
2024/03/21 04:28:16;;;;;;;;;15.25;12.75;;;;;12.71;74.35;101697.47;5048828;28;45508;-49
2024/03/21 04:30:42;;;;;;;;;16.00;12.25;;;;;12.69;74.09;101703.63;5058183;28;66674;-49
2024/03/21 04:33:08;;;;;;;;;17.00;14.00;;;;;12.65;74.29;101705.47;5052857;28;73008;-50
2024/03/21 04:35:33;;;;;;;;;20.25;15.00;;;;;12.61;74.33;101711.69;5057943;28;57252;-50
2024/03/21 04:38:00;;;;;;;;;17.00;14.75;;;;;12.58;74.39;101718.75;5044047;28;45273;-51
2024/03/21 04:40:25;;;;;;;;;16.75;13.25;;;;;12.53;74.72;101732.81;5053582;28;45431;-52
2024/03/21 04:42:51;;;;;;;;;19.00;12.75;;;;;12.48;74.17;101726.81;5043307;28;68032;-53
2024/03/21 04:45:18;;;;;;;;;17.50;14.25;;;;;12.47;74.40;101732.94;5049453;28;45364;-54
2024/03/21 04:47:44;;;;;;;;;15.25;12.00;;;;;12.44;74.63;101721.63;5057692;28;45485;-56
2024/03/21 04:50:10;;;;;;;;;15.75;15.25;;;;;12.44;74.78;101719.88;5051945;28;46186;-55
2024/03/21 04:52:35;;;;;;;;;19.25;16.00;;;;;12.41;74.63;101711.19;5057909;28;45434;-54
2024/03/21 04:55:00;;;;;;;;;17.50;13.25;;;;;12.39;74.73;101708.59;5057718;28;61996;-55
2024/03/21 04:57:26;;;;;;;;;15.50;14.00;;;;;12.38;74.28;101706.88;5042617;28;72757;-55
2024/03/21 04:59:54;;;;;;;;;14.50;14.00;;;;;12.34;74.42;101707.81;5051968;28;61620;-54
2024/03/21 05:02:19;;;;;;;;;16.00;12.75;;;;;12.32;74.74;101712.22;5044957;28;45284;-56
2024/03/21 05:04:45;;;;;;;;;19.75;12.75;;;;;12.30;74.38;101724.50;5057369;27;45360;-52
2024/03/21 05:07:10;;;;;;;;;14.50;12.00;;;;;12.29;74.95;101722.81;5056572;28;69574;-54
2024/03/21 05:09:35;;;;;;;;;18.00;14.25;;;;;12.28;74.64;101724.53;5065049;28;73488;-55
2024/03/21 05:12:01;;;;;;;;;13.75;12.50;;;;;12.28;74.93;101731.56;5050505;28;45445;-54
2024/03/21 05:14:28;;;;;;;;;14.50;12.75;;;;;12.27;74.54;101746.44;5057616;28;66784;-56
2024/03/21 05:16:53;;;;;;;;;12.50;12.25;;;;;12.23;74.93;101746.50;5057785;28;45424;-54
2024/03/21 05:19:19;;;;;;;;;13.75;11.00;;;;;12.18;74.49;101743.97;5057782;28;73387;-56
2024/03/21 05:21:44;;;;;;;;;13.75;11.00;;;;;12.13;75.00;101736.19;5043173;28;58408;-54
2024/03/21 05:24:09;;;;;;;;;17.75;12.00;;;;;12.14;74.83;101737.03;5057451;27;52033;-55
2024/03/21 05:26:34;;;;;;;;;16.75;13.25;;;;;12.12;75.06;101742.31;5048390;28;71966;-60
2024/03/21 05:29:00;;;;;;;;;14.50;13.75;;;;;12.10;74.79;101740.63;5051265;28;63260;-55
2024/03/21 05:31:26;;;;;;;;;15.75;10.25;;;;;12.11;74.85;101753.72;5041338;28;61996;-55
2024/03/21 05:33:53;;;;;;;;;16.25;11.50;;;;;12.07;74.36;101753.78;5060871;28;45197;-51
2024/03/21 05:36:18;;;;;;;;;18.50;14.50;;;;;12.05;74.91;101761.69;5061230;27;45667;-53
2024/03/21 05:38:44;;;;;;;;;9.75;9.25;;;;;12.03;74.86;101757.38;5060075;28;75175;-54
2024/03/21 05:41:10;;;;;;;;;13.00;11.00;;;;;11.98;74.67;101767.91;5071193;27;45342;-52
2024/03/21 05:43:35;;;;;;;;;16.25;13.75;;;;;11.94;75.05;101782.84;5061260;28;45417;-54
2024/03/21 05:46:01;;;;;;;;;26.25;15.75;;;;;11.90;75.16;101775.03;5057413;28;45451;-52
2024/03/21 05:48:26;;;;;;;;;18.00;14.00;;;;;11.88;74.93;101787.28;5059792;28;45374;-52
2024/03/21 05:50:52;;;;;;;;;14.75;14.00;;;;;11.87;74.93;101793.44;5045595;28;60240;-53
2024/03/21 05:53:17;;;;;;;;;12.75;10.75;;;;;11.82;75.39;101797.88;5061597;28;45399;-55
2024/03/21 05:55:43;;;;;;;;;17.75;13.25;;;;;11.77;75.51;101800.56;5060564;28;55894;-55
2024/03/21 05:58:08;;;;;;;;;13.75;11.25;;;;;11.74;75.15;101796.25;5041772;28;47152;-55
2024/03/21 06:00:34;;;;;;;;;14.00;11.75;;;;;11.71;75.54;101800.66;5059604;28;72699;-56
2024/03/21 06:02:59;;;;;;;;;16.00;12.25;;;;;11.68;75.58;101801.56;5059467;28;66598;-54
2024/03/21 06:05:25;;;;;;;;;17.50;13.50;;;;;11.68;75.50;101803.31;5059937;28;71933;-53
2024/03/21 06:07:50;;;;;;;;;18.00;15.25;;;;;11.65;75.56;101791.13;5060687;28;45592;-54
2024/03/21 06:10:16;;;;;;;;;15.25;11.75;;;;;11.65;75.59;101791.13;5056191;28;45238;-53
2024/03/21 06:12:41;;;;;;;;;15.75;13.00;;;;;11.67;75.61;101805.09;5052487;28;67870;-53
2024/03/21 06:15:07;;;;;;;;;18.00;14.75;;;;;11.68;75.45;101800.69;5072244;28;45237;-54
2024/03/21 06:17:32;;;;;;;;;16.75;12.75;;;;;11.70;75.77;101802.41;5060583;28;46174;-53
2024/03/21 06:19:58;;;;;;;;;17.50;15.75;;;;;11.72;75.96;101805.88;5051542;28;73142;-55
2024/03/21 06:22:23;;;;;;;;;19.50;16.00;;;;;11.74;75.96;101811.13;5058363;28;65801;-50
2024/03/21 06:24:48;;;;;;;;;19.25;15.00;;;;;11.73;75.86;101818.09;5057220;28;46764;-54
2024/03/21 06:27:14;;;;;;;;;12.25;12.00;;;;;11.74;75.83;101822.47;5059590;28;47192;-53
2024/03/21 06:29:39;;;;;;;;;18.50;13.25;;;;;11.78;76.01;101825.91;5060898;28;64420;-54
2024/03/21 06:32:05;;;;;;;;;14.50;11.25;;;;;11.81;75.87;101832.84;5052209;28;55314;-54
2024/03/21 06:34:31;;;;;;;;;18.25;17.50;;;;;11.85;75.55;101839.81;5060955;28;45213;-54
2024/03/21 06:36:56;;;;;;;;;19.25;16.25;;;;;11.85;75.63;101842.44;5060585;27;45764;-55
2024/03/21 06:39:22;;;;;;;;;18.75;15.00;;;;;11.84;75.46;101838.06;5059058;28;73138;-54
2024/03/21 06:41:48;;;;;;;;;16.25;12.50;;;;;11.85;75.82;101840.66;5058501;28;45443;-54
2024/03/21 06:44:14;;;;;;;;;18.25;15.00;;;;;11.87;75.65;101840.66;5060184;28;45447;-52
2024/03/21 06:46:40;;;;;;;;;190.50;141.00;;;;;11.90;75.68;101848.47;5060286;28;46219;-55
2024/03/21 06:49:06;;;;;;;;;20.50;15.00;;;;;11.92;75.64;101857.22;5058772;27;45854;-56
2024/03/21 06:51:31;;;;;;;;;20.75;17.50;;;;;11.95;76.11;101857.16;5059488;28;45427;-54
2024/03/21 06:53:57;;;;;;;;;15.50;15.00;;;;;12.00;75.79;101862.34;5060581;28;45579;-54
2024/03/21 06:56:22;;;;;;;;;19.75;16.00;;;;;12.00;75.45;101852.72;5055576;28;71841;-52
2024/03/21 06:58:49;;;;;;;;;20.00;15.50;;;;;12.03;75.17;101860.53;5041816;28;45238;-54
2024/03/21 07:01:15;;;;;;;;;16.00;15.75;;;;;12.05;75.32;101866.63;5041123;28;45257;-53
2024/03/21 07:03:40;;;;;;;;;17.00;15.75;;;;;12.06;75.31;101872.75;5044784;28;45281;-51
2024/03/21 07:06:05;;;;;;;;;16.75;16.75;;;;;12.07;75.00;101874.47;5052251;28;70708;-51
2024/03/21 07:08:31;;;;;;;;;17.00;15.50;;;;;12.08;75.19;101873.59;5056140;28;71035;-53
2024/03/21 07:10:56;;;;;;;;;19.50;14.75;;;;;12.12;75.04;101873.50;5047907;28;45284;-50
2024/03/21 07:13:21;;;;;;;;;21.25;16.25;;;;;12.18;75.03;101880.41;5042430;28;45348;-59
2024/03/21 07:15:47;;;;;;;;;19.25;17.00;;;;;12.23;75.00;101883.84;5058594;28;65742;-51
2024/03/21 07:18:16;;;;;;;;;18.25;15.00;;;;;12.27;75.37;101888.19;5043360;28;45369;-53
2024/03/21 07:20:41;;;;;;;;;18.75;17.25;;;;;12.32;74.70;101891.59;5041196;28;45329;-52
2024/03/21 07:23:07;;;;;;;;;20.50;19.00;;;;;12.37;74.68;101902.00;5051130;28;73138;-52
2024/03/21 07:25:35;;;;;;;;;19.50;16.50;;;;;12.43;74.25;101901.03;5060240;28;45941;-49
2024/03/21 07:28:00;;;;;;;;;20.50;17.50;;;;;12.47;74.31;101913.25;5060424;28;45347;-60
2024/03/21 07:30:26;;;;;;;;;21.25;17.75;;;;;12.52;74.15;101925.41;5060462;28;45296;-58
2024/03/21 07:32:51;;;;;;;;;20.25;17.00;;;;;12.57;74.13;101932.31;5060141;28;45501;-59
2024/03/21 07:35:16;;;;;;;;;19.25;17.00;;;;;12.59;73.50;101927.91;5059425;28;46284;-59
2024/03/21 07:37:43;;;;;;;;;19.50;15.50;;;;;12.61;73.97;101939.28;5059951;28;45328;-59
2024/03/21 07:40:09;;;;;;;;;18.25;15.00;;;;;12.64;73.67;101944.47;5060294;28;45273;-59
2024/03/21 07:42:34;;;;;;;;;20.50;18.25;;;;;12.65;73.45;101954.09;5059969;28;45457;-58
2024/03/21 07:45:03;;;;;;;;;18.25;15.75;;;;;12.64;73.14;101965.47;5052084;28;66892;-59
2024/03/21 07:47:29;;;;;;;;;23.75;19.75;;;;;12.65;73.38;101961.97;5046046;28;46075;-59
2024/03/21 07:49:54;;;;;;;;;31.25;20.25;;;;;12.65;73.24;101968.09;5041174;28;45477;-59
2024/03/21 07:52:20;;;;;;;;;21.50;18.00;;;;;12.65;72.90;101970.72;5040724;28;45453;-59
2024/03/21 07:54:46;;;;;;;;;26.75;19.50;;;;;12.67;73.13;101971.53;5059729;28;45609;-58
2024/03/21 07:57:11;;;;;;;;;20.25;16.50;;;;;12.69;73.08;101964.50;5059920;28;46802;-59
2024/03/21 07:59:36;;;;;;;;;18.25;13.50;;;;;12.70;72.92;101968.88;5059563;28;45691;-60
2024/03/21 08:02:02;;;;;;;;;25.00;23.00;;;;;12.77;72.92;101967.03;5043759;28;73249;-59
2024/03/21 08:04:28;;;;;;;;;22.00;18.00;;;;;12.79;72.86;101969.63;5039636;28;46236;-59
2024/03/21 08:06:55;;;;;;;;;20.00;19.00;;;;;12.82;73.19;101974.81;5034025;28;69027;-59
2024/03/21 08:09:20;;;;;;;;;21.25;19.25;;;;;12.89;72.47;101973.81;5058840;28;45343;-59
2024/03/21 08:11:46;;;;;;;;;26.00;19.00;;;;;12.92;72.19;101979.03;5059065;28;59702;-59
2024/03/21 08:14:11;;;;;;;;;20.50;18.50;;;;;12.96;72.12;101977.22;5059086;28;58498;-59
2024/03/21 08:16:36;;;;;;;;;24.50;21.50;;;;;12.98;72.04;101980.69;5059223;28;45334;-58
2024/03/21 08:19:02;;;;;;;;;28.25;20.75;;;;;12.99;72.00;101980.66;5059964;28;45262;-58
2024/03/21 08:21:27;;;;;;;;;21.50;16.25;;;;;13.01;71.76;101980.63;5071783;28;45420;-59
2024/03/21 08:23:52;;;;;;;;;21.75;18.50;;;;;13.06;71.52;101984.91;5039550;28;46607;-58
2024/03/21 08:26:19;;;;;;;;;20.75;17.50;;;;;13.12;71.54;101994.47;5037394;28;71866;-58
2024/03/21 08:28:44;;;;;;;;;21.00;19.00;;;;;13.20;71.77;101992.56;5040050;28;45363;-59
2024/03/21 08:31:09;;;;;;;;;19.75;14.00;;;;;13.25;71.53;101995.13;5039463;28;45490;-59
2024/03/21 08:33:35;;;;;;;;;23.75;19.25;;;;;13.36;71.11;101995.81;5056593;28;75840;-59
2024/03/21 08:36:00;;;;;;;;;24.75;17.75;;;;;13.42;71.10;102000.09;5058664;28;74382;-58
2024/03/21 08:38:25;;;;;;;;;21.25;16.75;;;;;13.52;70.90;102004.28;5057813;28;54261;-59
2024/03/21 08:40:54;;;;;;;;;21.25;19.50;;;;;13.61;70.67;101998.84;5058447;28;45351;-59
2024/03/21 08:43:21;;;;;;;;;27.00;21.00;;;;;13.72;70.90;101992.50;5040559;28;46307;-58
2024/03/21 08:45:48;;;;;;;;;27.00;22.25;;;;;13.81;70.47;101995.84;5047482;27;45854;-59
2024/03/21 08:48:14;;;;;;;;;35.00;23.00;;;;;13.94;70.25;102006.13;5043524;28;45540;-58
2024/03/21 08:50:40;;;;;;;;;25.00;22.75;;;;;14.02;69.94;102002.44;5059414;28;45304;-59
2024/03/21 08:53:06;;;;;;;;;28.00;22.00;;;;;14.08;69.65;102011.94;5059379;28;46246;-59
2024/03/21 08:55:35;;;;;;;;;27.00;22.00;;;;;14.15;69.37;102010.06;5059328;28;45260;-60
2024/03/21 08:58:01;;;;;;;;;32.25;24.75;;;;;14.22;69.18;102009.88;5058088;28;45563;-58
2024/03/21 09:00:26;;;;;;;;;29.25;22.00;;;;;14.32;69.32;102012.31;5059517;28;45443;-60
2024/03/21 09:02:52;;;;;;;;;29.75;24.25;;;;;14.39;68.99;102006.88;5058427;28;48072;-59
2024/03/21 09:05:17;;;;;;;;;31.50;23.75;;;;;14.49;68.75;102012.81;5061594;28;45243;-58
2024/03/21 09:07:42;;;;;;;;;31.00;26.75;;;;;14.57;68.63;102018.78;5061503;28;45415;-59
2024/03/21 09:10:08;;;;;;;;;27.50;24.25;;;;;14.62;68.45;102013.41;5048379;28;67708;-59
2024/03/21 09:12:33;;;;;;;;;27.50;22.75;;;;;14.69;67.86;102017.63;5041267;28;45460;-59
2024/03/21 09:14:59;;;;;;;;;24.25;21.25;;;;;14.78;68.08;102024.47;5044003;28;72091;-58
2024/03/21 09:17:25;;;;;;;;;27.00;23.50;;;;;14.86;67.88;102024.28;5041209;28;45383;-59
2024/03/21 09:19:50;;;;;;;;;34.75;23.75;;;;;14.93;67.32;102026.72;5042503;28;45504;-59
2024/03/21 09:22:15;;;;;;;;;30.00;22.00;;;;;15.02;67.44;102030.91;5045944;28;74622;-59
2024/03/21 09:24:46;;;;;;;;;23.75;23.75;;;;;15.11;66.95;102021.91;5031113;28;73386;-58
2024/03/21 09:27:11;;;;;;;;;34.75;25.50;;;;;15.22;66.60;102032.19;5042448;28;45219;-59
2024/03/21 09:29:37;;;;;;;;;30.50;25.75;;;;;15.32;66.96;102031.91;5042353;28;45512;-58
2024/03/21 09:32:02;;;;;;;;;37.50;27.50;;;;;15.39;66.30;102032.63;5040290;28;66054;-58
2024/03/21 09:34:27;;;;;;;;;32.00;27.00;;;;;15.49;66.56;102030.56;5042092;28;52379;-58
2024/03/21 09:36:52;;;;;;;;;32.75;22.75;;;;;15.57;65.73;102028.63;5041585;28;63745;-59
2024/03/21 09:39:18;;;;;;;;;29.75;24.75;;;;;15.65;65.31;102031.03;5041455;28;72732;-59
2024/03/21 09:41:43;;;;;;;;;28.25;25.00;;;;;15.71;65.27;102028.25;5055110;28;46430;-59
2024/03/21 09:44:13;;;;;;;;;32.50;27.75;;;;;15.81;65.19;102032.41;5046399;28;64906;-59
2024/03/21 09:46:39;;;;;;;;;29.75;27.50;;;;;15.86;64.66;102035.75;5047327;28;45412;-59
2024/03/21 09:49:05;;;;;;;;;35.00;26.25;;;;;15.93;64.56;102036.44;5060375;28;45482;-59
2024/03/21 09:51:31;;;;;;;;;31.25;27.75;;;;;16.03;64.22;102037.06;5041270;28;45349;-59
2024/03/21 09:53:56;;;;;;;;;29.25;25.00;;;;;16.06;64.08;102036.94;5040734;28;73321;-59
2024/03/21 09:56:22;;;;;;;;;32.75;23.50;;;;;16.12;63.84;102037.63;5046555;28;45188;-57
2024/03/21 09:58:47;;;;;;;;;28.00;25.75;;;;;16.19;63.69;102035.69;5041567;28;58185;-59
2024/03/21 10:01:22;;;;;;;;;24.50;22.25;;;;;16.31;63.73;102045.88;5060474;28;60122;-59
2024/03/21 10:03:56;;;;;;;;;28.50;24.75;;;;;16.43;63.32;102046.41;5060850;28;45352;-58
2024/03/21 10:06:22;;;;;;;;;28.75;25.50;;;;;16.58;63.31;102047.75;5058805;28;45370;-58
2024/03/21 10:08:47;;;;;;;;;33.50;24.25;;;;;16.67;62.60;102045.66;5059235;28;45384;-58
2024/03/21 10:11:13;;;;;;;;;29.75;24.75;;;;;16.79;62.36;102046.19;5041106;28;45956;-59
2024/03/21 10:13:41;;;;;;;;;27.00;22.50;;;;;16.90;62.17;102046.75;5050119;28;45406;-59
2024/03/21 10:16:14;;;;;;;;;27.75;22.25;;;;;16.98;61.98;102044.72;5059805;28;45501;-59
2024/03/21 10:18:40;;;;;;;;;27.00;22.00;;;;;17.05;61.79;102046.25;5059163;28;45552;-59
2024/03/21 10:21:25;;;;;;;;;30.50;26.00;;;;;17.08;61.20;102054.06;5041710;28;45494;-59
2024/03/21 10:24:03;;;;;;;;;28.00;26.25;;;;;17.18;61.24;102059.91;5059022;28;45513;-59
2024/03/21 10:26:29;;;;;;;;;27.75;24.75;;;;;17.27;61.21;102048.16;5048538;28;45444;-59
2024/03/21 10:28:55;;;;;;;;;50.50;32.75;;;;;17.35;60.46;102050.53;5048039;27;45255;-59
2024/03/21 10:31:21;;;;;;;;;29.75;26.00;;;;;17.38;60.13;102053.94;5059915;28;46807;-56
2024/03/21 10:33:47;;;;;;;;;28.00;25.00;;;;;17.42;60.06;102045.00;5061681;28;45236;-59
2024/03/21 10:36:14;;;;;;;;;30.50;26.00;;;;;17.53;59.81;102043.72;5060367;28;45384;-58
2024/03/21 10:38:40;;;;;;;;;32.00;23.75;;;;;17.62;59.96;102054.03;5061376;28;45395;-59
2024/03/21 10:41:11;;;;;;;;;29.50;25.50;;;;;17.67;59.64;102048.53;5059300;28;46850;-59
2024/03/21 10:43:40;;;;;;;;;26.00;17.75;;;;;17.73;59.67;102053.63;5044012;28;45245;-58
2024/03/21 10:46:05;;;;;;;;;32.50;25.50;;;;;17.74;59.36;102048.28;5056249;28;45315;-58
2024/03/21 10:48:34;;;;;;;;;29.25;25.00;;;;;17.80;59.31;102044.53;5056829;28;45402;-58
2024/03/21 10:51:10;;;;;;;;;30.00;24.50;;;;;17.82;58.58;102038.25;5041886;28;45276;-58
2024/03/21 10:53:36;;;;;;;;;34.25;27.50;;;;;17.88;58.49;102039.00;5059873;28;45852;-58
2024/03/21 10:56:06;;;;;;;;;33.25;26.25;;;;;17.95;58.32;102041.34;5044784;28;45253;-58
2024/03/21 10:58:31;;;;;;;;;35.75;28.25;;;;;18.03;58.81;102033.13;5061116;28;45461;-58
2024/03/21 11:00:56;;;;;;;;;28.50;25.25;;;;;18.08;58.05;102031.19;5061607;27;45351;-58
2024/03/21 11:03:22;;;;;;;;;31.25;25.75;;;;;18.10;57.97;102033.78;5059895;28;45286;-59
2024/03/21 11:05:53;;;;;;;;;24.00;20.75;;;;;18.18;57.75;102031.69;5058395;28;45320;-58
2024/03/21 11:08:29;;;;;;;;;29.50;24.00;;;;;18.31;57.77;102032.94;5059484;28;45442;-58